sensor_id;sensor_type;location;lat;lon;timestamp;P1;durP1;ratioP1;P2;durP2;ratioP2
5391;SDS011;2719;53.624;9.786;2023-02-11T00:00:40;32.70;;;10.60;;
5391;SDS011;2719;53.624;9.786;2023-02-11T00:03:07;30.50;;;11.37;;
5391;SDS011;2719;53.624;9.786;2023-02-11T00:05:34;32.27;;;10.10;;
5391;SDS011;2719;53.624;9.786;2023-02-11T00:08:02;29.27;;;10.83;;
5391;SDS011;2719;53.624;9.786;2023-02-11T00:10:29;31.23;;;10.40;;
5391;SDS011;2719;53.624;9.786;2023-02-11T00:12:57;35.30;;;9.87;;
5391;SDS011;2719;53.624;9.786;2023-02-11T00:15:23;24.43;;;10.37;;
5391;SDS011;2719;53.624;9.786;2023-02-11T00:17:50;37.47;;;11.60;;
5391;SDS011;2719;53.624;9.786;2023-02-11T00:20:16;36.97;;;11.93;;
5391;SDS011;2719;53.624;9.786;2023-02-11T00:22:43;29.70;;;10.70;;
5391;SDS011;2719;53.624;9.786;2023-02-11T00:25:10;30.30;;;10.10;;
5391;SDS011;2719;53.624;9.786;2023-02-11T00:27:36;43.83;;;10.87;;
5391;SDS011;2719;53.624;9.786;2023-02-11T00:30:05;28.00;;;9.97;;
5391;SDS011;2719;53.624;9.786;2023-02-11T00:32:32;30.77;;;11.37;;
5391;SDS011;2719;53.624;9.786;2023-02-11T00:34:59;25.43;;;10.87;;
5391;SDS011;2719;53.624;9.786;2023-02-11T00:37:26;28.73;;;10.67;;
5391;SDS011;2719;53.624;9.786;2023-02-11T00:39:52;29.43;;;10.87;;
5391;SDS011;2719;53.624;9.786;2023-02-11T00:42:19;23.80;;;9.00;;
5391;SDS011;2719;53.624;9.786;2023-02-11T00:44:46;23.77;;;10.47;;
5391;SDS011;2719;53.624;9.786;2023-02-11T00:47:14;32.97;;;10.30;;
5391;SDS011;2719;53.624;9.786;2023-02-11T00:49:40;24.77;;;10.87;;
5391;SDS011;2719;53.624;9.786;2023-02-11T00:52:07;30.73;;;10.97;;
5391;SDS011;2719;53.624;9.786;2023-02-11T00:54:34;32.73;;;12.07;;
5391;SDS011;2719;53.624;9.786;2023-02-11T00:57:00;27.33;;;11.73;;
5391;SDS011;2719;53.624;9.786;2023-02-11T00:59:27;31.30;;;10.93;;
5391;SDS011;2719;53.624;9.786;2023-02-11T01:01:54;29.83;;;10.50;;
5391;SDS011;2719;53.624;9.786;2023-02-11T01:04:22;47.07;;;11.30;;
5391;SDS011;2719;53.624;9.786;2023-02-11T01:06:48;31.57;;;10.60;;
5391;SDS011;2719;53.624;9.786;2023-02-11T01:09:15;26.30;;;10.47;;
5391;SDS011;2719;53.624;9.786;2023-02-11T01:11:42;29.07;;;9.97;;
5391;SDS011;2719;53.624;9.786;2023-02-11T01:14:08;38.23;;;11.67;;
5391;SDS011;2719;53.624;9.786;2023-02-11T01:16:35;34.50;;;11.40;;
5391;SDS011;2719;53.624;9.786;2023-02-11T01:19:02;38.53;;;11.43;;
5391;SDS011;2719;53.624;9.786;2023-02-11T01:21:30;32.93;;;12.40;;
5391;SDS011;2719;53.624;9.786;2023-02-11T01:23:56;30.63;;;11.53;;
5391;SDS011;2719;53.624;9.786;2023-02-11T01:26:23;32.00;;;9.60;;
5391;SDS011;2719;53.624;9.786;2023-02-11T01:28:50;34.17;;;12.03;;
5391;SDS011;2719;53.624;9.786;2023-02-11T01:31:17;31.10;;;12.30;;
5391;SDS011;2719;53.624;9.786;2023-02-11T01:33:43;34.17;;;12.40;;
5391;SDS011;2719;53.624;9.786;2023-02-11T01:36:10;34.43;;;11.27;;
5391;SDS011;2719;53.624;9.786;2023-02-11T01:38:39;26.17;;;13.47;;
5391;SDS011;2719;53.624;9.786;2023-02-11T01:41:06;39.77;;;14.20;;
5391;SDS011;2719;53.624;9.786;2023-02-11T01:43:35;23.40;;;11.90;;
5391;SDS011;2719;53.624;9.786;2023-02-11T01:46:11;32.07;;;14.43;;
5391;SDS011;2719;53.624;9.786;2023-02-11T01:48:46;41.70;;;14.07;;
5391;SDS011;2719;53.624;9.786;2023-02-11T01:51:17;41.87;;;13.20;;
5391;SDS011;2719;53.624;9.786;2023-02-11T01:53:50;24.33;;;11.43;;
5391;SDS011;2719;53.624;9.786;2023-02-11T01:56:36;33.10;;;10.80;;
5391;SDS011;2719;53.624;9.786;2023-02-11T01:59:28;27.77;;;11.30;;
5391;SDS011;2719;53.624;9.786;2023-02-11T02:01:57;30.13;;;11.50;;
5391;SDS011;2719;53.624;9.786;2023-02-11T02:04:28;30.63;;;10.80;;
5391;SDS011;2719;53.624;9.786;2023-02-11T02:07:01;31.47;;;11.43;;
5391;SDS011;2719;53.624;9.786;2023-02-11T02:09:33;38.10;;;12.20;;
5391;SDS011;2719;53.624;9.786;2023-02-11T02:12:04;29.60;;;12.60;;
5391;SDS011;2719;53.624;9.786;2023-02-11T02:14:31;41.23;;;13.40;;
5391;SDS011;2719;53.624;9.786;2023-02-11T02:16:58;30.47;;;11.57;;
5391;SDS011;2719;53.624;9.786;2023-02-11T02:19:31;25.67;;;11.60;;
5391;SDS011;2719;53.624;9.786;2023-02-11T02:22:40;32.23;;;11.73;;
5391;SDS011;2719;53.624;9.786;2023-02-11T02:25:38;35.27;;;10.90;;
5391;SDS011;2719;53.624;9.786;2023-02-11T02:28:35;38.27;;;12.70;;
5391;SDS011;2719;53.624;9.786;2023-02-11T02:31:39;28.60;;;10.60;;
5391;SDS011;2719;53.624;9.786;2023-02-11T02:34:18;27.93;;;11.40;;
5391;SDS011;2719;53.624;9.786;2023-02-11T02:36:51;29.00;;;9.77;;
5391;SDS011;2719;53.624;9.786;2023-02-11T02:39:26;27.67;;;9.70;;
5391;SDS011;2719;53.624;9.786;2023-02-11T02:41:56;28.57;;;9.37;;
5391;SDS011;2719;53.624;9.786;2023-02-11T02:44:23;31.67;;;11.07;;
5391;SDS011;2719;53.624;9.786;2023-02-11T02:46:50;40.00;;;11.00;;
5391;SDS011;2719;53.624;9.786;2023-02-11T02:49:18;28.17;;;10.27;;
5391;SDS011;2719;53.624;9.786;2023-02-11T02:51:52;30.47;;;12.47;;
5391;SDS011;2719;53.624;9.786;2023-02-11T02:54:45;25.50;;;9.20;;
5391;SDS011;2719;53.624;9.786;2023-02-11T02:57:28;27.90;;;9.27;;
5391;SDS011;2719;53.624;9.786;2023-02-11T03:00:03;26.00;;;10.40;;
5391;SDS011;2719;53.624;9.786;2023-02-11T03:02:41;25.30;;;9.50;;
5391;SDS011;2719;53.624;9.786;2023-02-11T03:05:20;27.00;;;9.80;;
5391;SDS011;2719;53.624;9.786;2023-02-11T03:07:52;40.27;;;10.40;;
5391;SDS011;2719;53.624;9.786;2023-02-11T03:10:24;28.93;;;10.13;;
5391;SDS011;2719;53.624;9.786;2023-02-11T03:12:53;27.27;;;9.53;;
5391;SDS011;2719;53.624;9.786;2023-02-11T03:15:22;36.10;;;11.07;;
5391;SDS011;2719;53.624;9.786;2023-02-11T03:17:52;25.17;;;9.67;;
5391;SDS011;2719;53.624;9.786;2023-02-11T03:20:23;27.53;;;10.53;;
5391;SDS011;2719;53.624;9.786;2023-02-11T03:22:52;25.60;;;8.83;;
5391;SDS011;2719;53.624;9.786;2023-02-11T03:25:20;35.17;;;9.17;;
5391;SDS011;2719;53.624;9.786;2023-02-11T03:27:51;25.00;;;9.03;;
5391;SDS011;2719;53.624;9.786;2023-02-11T03:30:36;30.70;;;9.50;;
5391;SDS011;2719;53.624;9.786;2023-02-11T03:33:07;27.87;;;8.93;;
5391;SDS011;2719;53.624;9.786;2023-02-11T03:35:44;22.27;;;8.97;;
5391;SDS011;2719;53.624;9.786;2023-02-11T03:38:16;28.77;;;10.10;;
5391;SDS011;2719;53.624;9.786;2023-02-11T03:40:47;23.67;;;9.17;;
5391;SDS011;2719;53.624;9.786;2023-02-11T03:43:16;17.77;;;8.33;;
5391;SDS011;2719;53.624;9.786;2023-02-11T03:45:47;25.87;;;10.03;;
5391;SDS011;2719;53.624;9.786;2023-02-11T03:48:21;20.00;;;8.10;;
5391;SDS011;2719;53.624;9.786;2023-02-11T03:50:52;30.17;;;9.33;;
5391;SDS011;2719;53.624;9.786;2023-02-11T03:53:21;31.70;;;8.40;;
5391;SDS011;2719;53.624;9.786;2023-02-11T03:55:49;21.80;;;7.80;;
5391;SDS011;2719;53.624;9.786;2023-02-11T03:58:17;20.17;;;7.87;;
5391;SDS011;2719;53.624;9.786;2023-02-11T04:00:44;33.67;;;9.77;;
5391;SDS011;2719;53.624;9.786;2023-02-11T04:03:11;26.80;;;7.80;;
5391;SDS011;2719;53.624;9.786;2023-02-11T04:05:38;21.73;;;6.73;;
5391;SDS011;2719;53.624;9.786;2023-02-11T04:08:07;28.57;;;8.57;;
5391;SDS011;2719;53.624;9.786;2023-02-11T04:10:34;22.03;;;7.00;;
5391;SDS011;2719;53.624;9.786;2023-02-11T04:13:00;24.30;;;8.80;;
5391;SDS011;2719;53.624;9.786;2023-02-11T04:15:27;22.37;;;7.60;;
5391;SDS011;2719;53.624;9.786;2023-02-11T04:17:54;23.37;;;8.23;;
5391;SDS011;2719;53.624;9.786;2023-02-11T04:20:20;26.67;;;8.70;;
5391;SDS011;2719;53.624;9.786;2023-02-11T04:22:47;19.87;;;7.60;;
5391;SDS011;2719;53.624;9.786;2023-02-11T04:25:15;23.50;;;6.47;;
5391;SDS011;2719;53.624;9.786;2023-02-11T04:27:42;17.43;;;6.73;;
5391;SDS011;2719;53.624;9.786;2023-02-11T04:30:09;23.70;;;7.33;;
5391;SDS011;2719;53.624;9.786;2023-02-11T04:32:36;23.47;;;7.70;;
5391;SDS011;2719;53.624;9.786;2023-02-11T04:35:03;24.70;;;7.13;;
5391;SDS011;2719;53.624;9.786;2023-02-11T04:37:30;26.93;;;7.60;;
5391;SDS011;2719;53.624;9.786;2023-02-11T04:39:57;17.80;;;6.97;;
5391;SDS011;2719;53.624;9.786;2023-02-11T04:42:25;28.17;;;7.63;;
5391;SDS011;2719;53.624;9.786;2023-02-11T04:44:52;23.37;;;8.77;;
5391;SDS011;2719;53.624;9.786;2023-02-11T04:47:19;28.20;;;8.80;;
5391;SDS011;2719;53.624;9.786;2023-02-11T04:49:45;19.23;;;5.90;;
5391;SDS011;2719;53.624;9.786;2023-02-11T04:52:12;33.43;;;7.30;;
5391;SDS011;2719;53.624;9.786;2023-02-11T04:54:39;21.73;;;6.90;;
5391;SDS011;2719;53.624;9.786;2023-02-11T04:57:05;14.70;;;6.80;;
5391;SDS011;2719;53.624;9.786;2023-02-11T04:59:33;22.87;;;8.17;;
5391;SDS011;2719;53.624;9.786;2023-02-11T05:02:00;16.47;;;6.60;;
5391;SDS011;2719;53.624;9.786;2023-02-11T05:04:28;27.30;;;8.40;;
5391;SDS011;2719;53.624;9.786;2023-02-11T05:06:55;19.47;;;6.47;;
5391;SDS011;2719;53.624;9.786;2023-02-11T05:09:21;25.63;;;7.63;;
5391;SDS011;2719;53.624;9.786;2023-02-11T05:11:48;33.23;;;8.80;;
5391;SDS011;2719;53.624;9.786;2023-02-11T05:14:14;24.73;;;8.07;;
5391;SDS011;2719;53.624;9.786;2023-02-11T05:16:42;25.53;;;7.67;;
5391;SDS011;2719;53.624;9.786;2023-02-11T05:19:09;19.47;;;8.30;;
5391;SDS011;2719;53.624;9.786;2023-02-11T05:21:36;23.03;;;9.03;;
5391;SDS011;2719;53.624;9.786;2023-02-11T05:24:03;19.00;;;6.73;;
5391;SDS011;2719;53.624;9.786;2023-02-11T05:26:30;21.13;;;7.77;;
5391;SDS011;2719;53.624;9.786;2023-02-11T05:28:57;27.07;;;7.97;;
5391;SDS011;2719;53.624;9.786;2023-02-11T05:31:24;21.07;;;6.97;;
5391;SDS011;2719;53.624;9.786;2023-02-11T05:33:52;21.50;;;7.70;;
5391;SDS011;2719;53.624;9.786;2023-02-11T05:36:19;27.43;;;6.20;;
5391;SDS011;2719;53.624;9.786;2023-02-11T05:38:45;11.97;;;5.90;;
5391;SDS011;2719;53.624;9.786;2023-02-11T05:41:12;24.33;;;6.63;;
5391;SDS011;2719;53.624;9.786;2023-02-11T05:43:38;18.50;;;6.57;;
5391;SDS011;2719;53.624;9.786;2023-02-11T05:46:05;20.87;;;6.40;;
5391;SDS011;2719;53.624;9.786;2023-02-11T05:48:32;18.37;;;5.97;;
5391;SDS011;2719;53.624;9.786;2023-02-11T05:51:00;17.67;;;6.03;;
5391;SDS011;2719;53.624;9.786;2023-02-11T05:53:27;20.40;;;6.90;;
5391;SDS011;2719;53.624;9.786;2023-02-11T05:55:54;14.87;;;6.03;;
5391;SDS011;2719;53.624;9.786;2023-02-11T05:58:21;18.33;;;6.50;;
5391;SDS011;2719;53.624;9.786;2023-02-11T06:00:48;17.70;;;6.47;;
5391;SDS011;2719;53.624;9.786;2023-02-11T06:03:14;13.20;;;5.77;;
5391;SDS011;2719;53.624;9.786;2023-02-11T06:05:41;12.57;;;5.50;;
5391;SDS011;2719;53.624;9.786;2023-02-11T06:08:09;18.07;;;6.20;;
5391;SDS011;2719;53.624;9.786;2023-02-11T06:10:37;12.63;;;5.47;;
5391;SDS011;2719;53.624;9.786;2023-02-11T06:13:06;10.67;;;5.93;;
5391;SDS011;2719;53.624;9.786;2023-02-11T06:15:33;29.83;;;6.83;;
5391;SDS011;2719;53.624;9.786;2023-02-11T06:17:59;13.67;;;6.13;;
5391;SDS011;2719;53.624;9.786;2023-02-11T06:20:26;22.70;;;5.80;;
5391;SDS011;2719;53.624;9.786;2023-02-11T06:22:53;24.80;;;5.87;;
5391;SDS011;2719;53.624;9.786;2023-02-11T06:25:21;11.63;;;5.37;;
5391;SDS011;2719;53.624;9.786;2023-02-11T06:27:48;16.90;;;5.53;;
5391;SDS011;2719;53.624;9.786;2023-02-11T06:30:14;13.90;;;5.03;;
5391;SDS011;2719;53.624;9.786;2023-02-11T06:32:41;14.87;;;5.80;;
5391;SDS011;2719;53.624;9.786;2023-02-11T06:35:08;13.27;;;6.43;;
5391;SDS011;2719;53.624;9.786;2023-02-11T06:37:34;20.60;;;6.30;;
5391;SDS011;2719;53.624;9.786;2023-02-11T06:40:01;18.80;;;6.93;;
5391;SDS011;2719;53.624;9.786;2023-02-11T06:42:29;15.67;;;6.57;;
5391;SDS011;2719;53.624;9.786;2023-02-11T06:44:56;11.70;;;6.20;;
5391;SDS011;2719;53.624;9.786;2023-02-11T06:47:23;12.17;;;6.00;;
5391;SDS011;2719;53.624;9.786;2023-02-11T06:49:50;18.43;;;7.57;;
5391;SDS011;2719;53.624;9.786;2023-02-11T06:52:16;15.13;;;5.77;;
5391;SDS011;2719;53.624;9.786;2023-02-11T06:54:43;12.63;;;5.47;;
5391;SDS011;2719;53.624;9.786;2023-02-11T06:57:10;11.30;;;6.40;;
5391;SDS011;2719;53.624;9.786;2023-02-11T06:59:38;13.37;;;5.73;;
5391;SDS011;2719;53.624;9.786;2023-02-11T07:02:04;15.30;;;6.70;;
5391;SDS011;2719;53.624;9.786;2023-02-11T07:04:31;14.70;;;5.87;;
5391;SDS011;2719;53.624;9.786;2023-02-11T07:06:58;16.67;;;5.57;;
5391;SDS011;2719;53.624;9.786;2023-02-11T07:09:24;13.43;;;4.80;;
5391;SDS011;2719;53.624;9.786;2023-02-11T07:11:51;16.63;;;5.77;;
5391;SDS011;2719;53.624;9.786;2023-02-11T07:14:18;12.53;;;6.10;;
5391;SDS011;2719;53.624;9.786;2023-02-11T07:16:46;12.13;;;5.90;;
5391;SDS011;2719;53.624;9.786;2023-02-11T07:19:12;12.53;;;6.10;;
5391;SDS011;2719;53.624;9.786;2023-02-11T07:21:39;28.63;;;7.50;;
5391;SDS011;2719;53.624;9.786;2023-02-11T07:24:07;15.43;;;7.10;;
5391;SDS011;2719;53.624;9.786;2023-02-11T07:26:34;18.03;;;6.60;;
5391;SDS011;2719;53.624;9.786;2023-02-11T07:29:01;17.80;;;7.30;;
5391;SDS011;2719;53.624;9.786;2023-02-11T07:31:28;21.33;;;7.17;;
5391;SDS011;2719;53.624;9.786;2023-02-11T07:33:58;21.63;;;7.60;;
5391;SDS011;2719;53.624;9.786;2023-02-11T07:36:27;14.27;;;6.83;;
5391;SDS011;2719;53.624;9.786;2023-02-11T07:38:55;19.67;;;7.80;;
5391;SDS011;2719;53.624;9.786;2023-02-11T07:41:23;17.13;;;8.10;;
5391;SDS011;2719;53.624;9.786;2023-02-11T07:43:50;13.93;;;6.47;;
5391;SDS011;2719;53.624;9.786;2023-02-11T07:46:17;30.13;;;7.53;;
5391;SDS011;2719;53.624;9.786;2023-02-11T07:48:45;28.00;;;7.37;;
5391;SDS011;2719;53.624;9.786;2023-02-11T07:51:14;23.87;;;7.50;;
5391;SDS011;2719;53.624;9.786;2023-02-11T07:53:42;23.40;;;8.80;;
5391;SDS011;2719;53.624;9.786;2023-02-11T07:56:09;19.47;;;7.00;;
5391;SDS011;2719;53.624;9.786;2023-02-11T07:58:37;18.63;;;7.93;;
5391;SDS011;2719;53.624;9.786;2023-02-11T08:01:06;20.83;;;8.00;;
5391;SDS011;2719;53.624;9.786;2023-02-11T08:03:35;26.77;;;7.93;;
5391;SDS011;2719;53.624;9.786;2023-02-11T08:06:03;20.70;;;7.43;;
5391;SDS011;2719;53.624;9.786;2023-02-11T08:08:32;17.90;;;7.60;;
5391;SDS011;2719;53.624;9.786;2023-02-11T08:11:04;23.73;;;7.43;;
5391;SDS011;2719;53.624;9.786;2023-02-11T08:13:31;22.70;;;7.70;;
5391;SDS011;2719;53.624;9.786;2023-02-11T08:15:58;20.53;;;7.83;;
5391;SDS011;2719;53.624;9.786;2023-02-11T08:18:25;26.03;;;7.90;;
5391;SDS011;2719;53.624;9.786;2023-02-11T08:20:52;21.20;;;8.20;;
5391;SDS011;2719;53.624;9.786;2023-02-11T08:23:19;17.00;;;7.27;;
5391;SDS011;2719;53.624;9.786;2023-02-11T08:25:47;26.90;;;8.37;;
5391;SDS011;2719;53.624;9.786;2023-02-11T08:28:14;18.10;;;7.90;;
5391;SDS011;2719;53.624;9.786;2023-02-11T08:30:41;15.10;;;7.40;;
5391;SDS011;2719;53.624;9.786;2023-02-11T08:33:07;21.70;;;7.50;;
5391;SDS011;2719;53.624;9.786;2023-02-11T08:35:34;16.80;;;6.63;;
5391;SDS011;2719;53.624;9.786;2023-02-11T08:38:01;18.00;;;8.30;;
5391;SDS011;2719;53.624;9.786;2023-02-11T08:40:27;26.67;;;8.07;;
5391;SDS011;2719;53.624;9.786;2023-02-11T08:42:55;25.97;;;7.47;;
5391;SDS011;2719;53.624;9.786;2023-02-11T08:45:22;22.10;;;7.40;;
5391;SDS011;2719;53.624;9.786;2023-02-11T08:47:49;22.43;;;8.60;;
5391;SDS011;2719;53.624;9.786;2023-02-11T08:50:15;19.20;;;7.67;;
5391;SDS011;2719;53.624;9.786;2023-02-11T08:52:42;20.23;;;7.43;;
5391;SDS011;2719;53.624;9.786;2023-02-11T08:55:09;15.40;;;6.33;;
5391;SDS011;2719;53.624;9.786;2023-02-11T08:57:36;13.87;;;6.07;;
5391;SDS011;2719;53.624;9.786;2023-02-11T09:00:04;17.80;;;6.30;;
5391;SDS011;2719;53.624;9.786;2023-02-11T09:02:32;18.03;;;6.83;;
5391;SDS011;2719;53.624;9.786;2023-02-11T09:04:59;20.40;;;8.20;;
5391;SDS011;2719;53.624;9.786;2023-02-11T09:07:26;24.93;;;7.60;;
5391;SDS011;2719;53.624;9.786;2023-02-11T09:09:53;9.10;;;5.20;;
5391;SDS011;2719;53.624;9.786;2023-02-11T09:12:20;15.30;;;5.67;;
5391;SDS011;2719;53.624;9.786;2023-02-11T09:14:47;10.80;;;5.77;;
5391;SDS011;2719;53.624;9.786;2023-02-11T09:17:15;18.27;;;6.70;;
5391;SDS011;2719;53.624;9.786;2023-02-11T09:19:41;19.43;;;5.50;;
5391;SDS011;2719;53.624;9.786;2023-02-11T09:22:08;16.33;;;6.30;;
5391;SDS011;2719;53.624;9.786;2023-02-11T09:24:35;15.00;;;5.67;;
5391;SDS011;2719;53.624;9.786;2023-02-11T09:27:01;19.10;;;4.70;;
5391;SDS011;2719;53.624;9.786;2023-02-11T09:29:28;13.93;;;5.30;;
5391;SDS011;2719;53.624;9.786;2023-02-11T09:31:55;15.10;;;5.43;;
5391;SDS011;2719;53.624;9.786;2023-02-11T09:34:23;18.37;;;5.60;;
5391;SDS011;2719;53.624;9.786;2023-02-11T09:36:50;14.50;;;4.63;;
5391;SDS011;2719;53.624;9.786;2023-02-11T09:39:18;12.93;;;5.20;;
5391;SDS011;2719;53.624;9.786;2023-02-11T09:41:58;28.13;;;5.40;;
5391;SDS011;2719;53.624;9.786;2023-02-11T09:44:36;16.53;;;4.80;;
5391;SDS011;2719;53.624;9.786;2023-02-11T09:47:03;19.77;;;5.50;;
5391;SDS011;2719;53.624;9.786;2023-02-11T09:49:35;32.57;;;5.43;;
5391;SDS011;2719;53.624;9.786;2023-02-11T09:52:05;15.10;;;5.97;;
5391;SDS011;2719;53.624;9.786;2023-02-11T09:54:40;18.93;;;4.60;;
5391;SDS011;2719;53.624;9.786;2023-02-11T09:57:18;31.47;;;5.57;;
5391;SDS011;2719;53.624;9.786;2023-02-11T09:59:46;24.43;;;3.90;;
5391;SDS011;2719;53.624;9.786;2023-02-11T10:02:15;20.40;;;4.33;;
5391;SDS011;2719;53.624;9.786;2023-02-11T10:04:55;17.60;;;4.70;;
5391;SDS011;2719;53.624;9.786;2023-02-11T10:07:54;19.70;;;3.87;;
5391;SDS011;2719;53.624;9.786;2023-02-11T10:10:30;20.63;;;4.03;;
5391;SDS011;2719;53.624;9.786;2023-02-11T10:13:10;14.43;;;4.00;;
5391;SDS011;2719;53.624;9.786;2023-02-11T10:15:57;11.97;;;3.13;;
5391;SDS011;2719;53.624;9.786;2023-02-11T10:18:38;17.30;;;3.40;;
5391;SDS011;2719;53.624;9.786;2023-02-11T10:21:14;21.83;;;3.83;;
5391;SDS011;2719;53.624;9.786;2023-02-11T10:23:50;23.43;;;3.93;;
5391;SDS011;2719;53.624;9.786;2023-02-11T10:26:19;20.83;;;4.17;;
5391;SDS011;2719;53.624;9.786;2023-02-11T10:28:47;19.27;;;4.33;;
5391;SDS011;2719;53.624;9.786;2023-02-11T10:31:18;18.27;;;3.07;;
5391;SDS011;2719;53.624;9.786;2023-02-11T10:33:48;17.60;;;3.83;;
5391;SDS011;2719;53.624;9.786;2023-02-11T10:36:23;29.47;;;4.40;;
5391;SDS011;2719;53.624;9.786;2023-02-11T10:38:52;16.93;;;2.73;;
5391;SDS011;2719;53.624;9.786;2023-02-11T10:41:20;21.23;;;4.20;;
5391;SDS011;2719;53.624;9.786;2023-02-11T10:43:51;15.23;;;2.43;;
5391;SDS011;2719;53.624;9.786;2023-02-11T10:46:18;19.93;;;5.03;;
5391;SDS011;2719;53.624;9.786;2023-02-11T10:48:48;13.37;;;2.47;;
5391;SDS011;2719;53.624;9.786;2023-02-11T10:51:18;15.83;;;3.47;;
5391;SDS011;2719;53.624;9.786;2023-02-11T10:53:49;20.10;;;2.70;;
5391;SDS011;2719;53.624;9.786;2023-02-11T10:56:38;18.20;;;3.30;;
5391;SDS011;2719;53.624;9.786;2023-02-11T10:59:13;22.60;;;4.23;;
5391;SDS011;2719;53.624;9.786;2023-02-11T11:01:46;20.83;;;2.97;;
5391;SDS011;2719;53.624;9.786;2023-02-11T11:04:25;9.50;;;2.30;;
5391;SDS011;2719;53.624;9.786;2023-02-11T11:07:10;10.83;;;2.10;;
5391;SDS011;2719;53.624;9.786;2023-02-11T11:09:44;18.67;;;2.90;;
5391;SDS011;2719;53.624;9.786;2023-02-11T11:12:22;14.03;;;2.20;;
5391;SDS011;2719;53.624;9.786;2023-02-11T11:14:52;14.07;;;1.40;;
5391;SDS011;2719;53.624;9.786;2023-02-11T11:17:20;9.97;;;2.17;;
5391;SDS011;2719;53.624;9.786;2023-02-11T11:19:46;11.90;;;3.20;;
5391;SDS011;2719;53.624;9.786;2023-02-11T11:22:18;17.30;;;2.10;;
5391;SDS011;2719;53.624;9.786;2023-02-11T11:24:48;20.43;;;3.50;;
5391;SDS011;2719;53.624;9.786;2023-02-11T11:27:18;17.00;;;2.83;;
5391;SDS011;2719;53.624;9.786;2023-02-11T11:29:48;6.00;;;1.50;;
5391;SDS011;2719;53.624;9.786;2023-02-11T11:32:18;12.43;;;1.70;;
5391;SDS011;2719;53.624;9.786;2023-02-11T11:34:48;12.30;;;2.23;;
5391;SDS011;2719;53.624;9.786;2023-02-11T11:37:19;8.37;;;1.73;;
5391;SDS011;2719;53.624;9.786;2023-02-11T11:39:52;13.13;;;1.67;;
5391;SDS011;2719;53.624;9.786;2023-02-11T11:42:26;14.73;;;1.17;;
5391;SDS011;2719;53.624;9.786;2023-02-11T11:44:55;9.20;;;1.97;;
5391;SDS011;2719;53.624;9.786;2023-02-11T11:47:25;5.47;;;1.90;;
5391;SDS011;2719;53.624;9.786;2023-02-11T11:50:04;10.50;;;1.67;;
5391;SDS011;2719;53.624;9.786;2023-02-11T11:52:42;11.73;;;1.87;;
5391;SDS011;2719;53.624;9.786;2023-02-11T11:55:17;7.80;;;1.20;;
5391;SDS011;2719;53.624;9.786;2023-02-11T11:57:47;12.83;;;1.20;;
5391;SDS011;2719;53.624;9.786;2023-02-11T12:00:16;10.60;;;2.10;;
5391;SDS011;2719;53.624;9.786;2023-02-11T12:02:50;6.60;;;1.00;;
5391;SDS011;2719;53.624;9.786;2023-02-11T12:05:44;7.63;;;1.33;;
5391;SDS011;2719;53.624;9.786;2023-02-11T12:08:19;7.00;;;1.40;;
5391;SDS011;2719;53.624;9.786;2023-02-11T12:10:56;13.73;;;2.00;;
5391;SDS011;2719;53.624;9.786;2023-02-11T12:13:31;8.37;;;1.70;;
5391;SDS011;2719;53.624;9.786;2023-02-11T12:16:10;6.03;;;1.10;;
5391;SDS011;2719;53.624;9.786;2023-02-11T12:18:55;17.23;;;1.60;;
5391;SDS011;2719;53.624;9.786;2023-02-11T12:21:48;6.83;;;1.17;;
5391;SDS011;2719;53.624;9.786;2023-02-11T12:24:29;8.50;;;1.37;;
5391;SDS011;2719;53.624;9.786;2023-02-11T12:27:05;11.53;;;1.47;;
5391;SDS011;2719;53.624;9.786;2023-02-11T12:29:39;6.17;;;1.00;;
5391;SDS011;2719;53.624;9.786;2023-02-11T12:32:16;7.60;;;1.10;;
5391;SDS011;2719;53.624;9.786;2023-02-11T12:35:00;15.17;;;2.50;;
5391;SDS011;2719;53.624;9.786;2023-02-11T12:37:57;10.50;;;1.07;;
5391;SDS011;2719;53.624;9.786;2023-02-11T12:40:52;8.20;;;1.30;;
5391;SDS011;2719;53.624;9.786;2023-02-11T12:43:28;13.17;;;2.77;;
5391;SDS011;2719;53.624;9.786;2023-02-11T12:48:56;12.30;;;1.40;;
5391;SDS011;2719;53.624;9.786;2023-02-11T12:51:44;4.33;;;1.33;;
5391;SDS011;2719;53.624;9.786;2023-02-11T12:54:22;7.20;;;1.57;;
5391;SDS011;2719;53.624;9.786;2023-02-11T12:56:53;7.67;;;0.93;;
5391;SDS011;2719;53.624;9.786;2023-02-11T12:59:33;6.50;;;1.13;;
5391;SDS011;2719;53.624;9.786;2023-02-11T13:02:17;9.53;;;1.13;;
5391;SDS011;2719;53.624;9.786;2023-02-11T13:04:51;10.63;;;1.20;;
5391;SDS011;2719;53.624;9.786;2023-02-11T13:07:22;11.70;;;1.10;;
5391;SDS011;2719;53.624;9.786;2023-02-11T13:09:53;14.27;;;1.53;;
5391;SDS011;2719;53.624;9.786;2023-02-11T13:12:26;15.30;;;1.27;;
5391;SDS011;2719;53.624;9.786;2023-02-11T13:15:14;12.33;;;1.70;;
5391;SDS011;2719;53.624;9.786;2023-02-11T13:17:45;21.83;;;2.70;;
5391;SDS011;2719;53.624;9.786;2023-02-11T13:20:20;15.23;;;1.73;;
5391;SDS011;2719;53.624;9.786;2023-02-11T13:22:58;14.10;;;2.83;;
5391;SDS011;2719;53.624;9.786;2023-02-11T13:25:32;22.80;;;2.60;;
5391;SDS011;2719;53.624;9.786;2023-02-11T13:28:09;24.17;;;2.33;;
5391;SDS011;2719;53.624;9.786;2023-02-11T13:30:46;15.40;;;1.60;;
5391;SDS011;2719;53.624;9.786;2023-02-11T13:33:31;19.77;;;3.03;;
5391;SDS011;2719;53.624;9.786;2023-02-11T13:36:14;7.60;;;1.40;;
5391;SDS011;2719;53.624;9.786;2023-02-11T13:38:50;9.93;;;2.70;;
5391;SDS011;2719;53.624;9.786;2023-02-11T13:41:30;23.40;;;2.63;;
5391;SDS011;2719;53.624;9.786;2023-02-11T13:44:00;13.90;;;1.67;;
5391;SDS011;2719;53.624;9.786;2023-02-11T13:49:17;24.03;;;3.50;;
5391;SDS011;2719;53.624;9.786;2023-02-11T13:51:46;25.10;;;4.30;;
5391;SDS011;2719;53.624;9.786;2023-02-11T13:54:21;17.37;;;2.60;;
5391;SDS011;2719;53.624;9.786;2023-02-11T14:00:00;28.47;;;3.00;;
5391;SDS011;2719;53.624;9.786;2023-02-11T14:02:35;26.27;;;2.57;;
5391;SDS011;2719;53.624;9.786;2023-02-11T14:05:24;25.87;;;3.93;;
5391;SDS011;2719;53.624;9.786;2023-02-11T14:08:16;21.47;;;2.60;;
5391;SDS011;2719;53.624;9.786;2023-02-11T14:11:05;27.47;;;2.30;;
5391;SDS011;2719;53.624;9.786;2023-02-11T14:13:36;24.80;;;2.63;;
5391;SDS011;2719;53.624;9.786;2023-02-11T14:16:50;20.67;;;2.10;;
5391;SDS011;2719;53.624;9.786;2023-02-11T14:19:46;18.07;;;1.87;;
5391;SDS011;2719;53.624;9.786;2023-02-11T14:22:15;9.50;;;2.17;;
5391;SDS011;2719;53.624;9.786;2023-02-11T14:24:45;15.50;;;2.23;;
5391;SDS011;2719;53.624;9.786;2023-02-11T14:27:17;31.50;;;2.70;;
5391;SDS011;2719;53.624;9.786;2023-02-11T14:29:52;19.33;;;1.90;;
5391;SDS011;2719;53.624;9.786;2023-02-11T14:32:34;19.30;;;1.83;;
5391;SDS011;2719;53.624;9.786;2023-02-11T14:35:11;16.73;;;2.20;;
5391;SDS011;2719;53.624;9.786;2023-02-11T14:37:46;15.77;;;3.00;;
5391;SDS011;2719;53.624;9.786;2023-02-11T14:40:23;18.23;;;1.50;;
5391;SDS011;2719;53.624;9.786;2023-02-11T14:42:54;16.63;;;2.10;;
5391;SDS011;2719;53.624;9.786;2023-02-11T14:45:23;17.87;;;2.30;;
5391;SDS011;2719;53.624;9.786;2023-02-11T14:47:54;22.70;;;2.00;;
5391;SDS011;2719;53.624;9.786;2023-02-11T14:50:27;11.47;;;2.10;;
5391;SDS011;2719;53.624;9.786;2023-02-11T14:52:58;9.87;;;1.70;;
5391;SDS011;2719;53.624;9.786;2023-02-11T14:55:28;14.60;;;2.70;;
5391;SDS011;2719;53.624;9.786;2023-02-11T14:58:07;10.77;;;1.97;;
5391;SDS011;2719;53.624;9.786;2023-02-11T15:00:49;12.77;;;2.23;;
5391;SDS011;2719;53.624;9.786;2023-02-11T15:06:11;8.07;;;1.30;;
5391;SDS011;2719;53.624;9.786;2023-02-11T15:08:42;10.87;;;1.10;;
5391;SDS011;2719;53.624;9.786;2023-02-11T15:11:13;18.57;;;2.17;;
5391;SDS011;2719;53.624;9.786;2023-02-11T15:13:42;11.00;;;1.57;;
5391;SDS011;2719;53.624;9.786;2023-02-11T15:16:11;20.63;;;1.67;;
5391;SDS011;2719;53.624;9.786;2023-02-11T15:18:43;8.97;;;1.30;;
5391;SDS011;2719;53.624;9.786;2023-02-11T15:21:13;9.87;;;1.90;;
5391;SDS011;2719;53.624;9.786;2023-02-11T15:23:53;14.53;;;2.10;;
5391;SDS011;2719;53.624;9.786;2023-02-11T15:26:21;14.83;;;1.83;;
5391;SDS011;2719;53.624;9.786;2023-02-11T15:28:48;17.67;;;2.70;;
5391;SDS011;2719;53.624;9.786;2023-02-11T15:31:16;25.73;;;3.33;;
5391;SDS011;2719;53.624;9.786;2023-02-11T15:33:44;17.90;;;2.57;;
5391;SDS011;2719;53.624;9.786;2023-02-11T15:36:12;20.50;;;2.60;;